Liste des engagé(e)s
Classement
PDF
   
         
   
 
Pos N° Nom Prénom Pays Temps Ecart Pl. Cat. Pl. Sexe Club
1 417 SOURNIA Robin 00:35:06 1 SE 1 M
2 421 QUINARD Leo 00:35:25 19 2 SE 2 M Les keunar
3 420 SANTELIA Damien 00:35:33 27 3 SE 3 M Les Keunar
4 396 GOBY Romain 00:39:35 04:29 4 SE 4 M deglingos come back
5 431 PERRIER LoĂŻc 00:40:10 05:04 1 V1 5 M Les Tagada
6 945 HEBERT Pauline 00:40:42 05:36 1 MI 1 F Les Déglingués
7 942 GAVINET Benjamin 00:41:29 06:23 1 MI 6 M les gosses
8 943 VILLE Raphaël 00:41:33 06:27 2 MI 7 M les gosses
9 645 CHARRETON Jules 00:42:48 07:42 1 BE 8 M
10 855 FABBRI Matthis 00:43:16 08:10 1 CA 9 M Raphael Fabbri
11 646 FAGOT Elodie 00:43:20 08:14 1 SE 2 F
12 877 ARCHAMBEAUD Aldric 00:44:17 09:11 5 SE 10 M Les Chausseurs de Lièvres
13 934 BLUTEAU Flavien 00:44:28 09:22 3 MI 11 M Les Déglingués
14 775 GUYOT Ethan 00:45:08 10:02 2 CA 12 M
15 772 MALJOURNAL Sylvain 00:45:09 10:03 3 CA 13 M
16 432 PERRIER Hugo 00:45:43 10:37 1 JU 14 M Les Tagada
17 667 MATTOLINI Lucas 00:46:02 10:56 2 BE 15 M Team Matto
18 668 MATTOLINI Christophe 00:46:11 11:05 2 V1 16 M Team Matto
19 664 FIERE Enzo 00:46:17 11:11 4 MI 17 M
20 806 BORDONNET Erwan 00:47:46 12:40 5 MI 18 M LAI MUOI RIVES
21 632 MOLLIER SABET Leo 00:47:49 12:43 6 MI 19 M Les connards
22 840 GOLOBINEK Lucas 00:48:37 13:31 4 CA 20 M LES RELOUS
23 839 CAZENEUVE Gabriel 00:48:44 13:38 5 CA 21 M
24 807 BORDONNET Anna 00:49:30 14:24 1 BE 3 F LAI MUOI RIVES
25 429 GABRIELE Mary 00:49:46 14:40 1 V1 4 F Les Tagada
26 941 BARNOUD Sylvain 00:49:56 14:50 6 SE 22 M
27 916 GAMEZ Mickaël 00:49:56 14:50 7 SE 23 M
28 915 REYMERMIER Nina 00:50:00 14:54 2 SE 5 F
29 595 BOUILLARD Johan 00:50:54 15:48 8 SE 24 M Les niouks
30 602 BIDAUD Jonathan 00:51:04 15:58 9 SE 25 M Les niouks
31 606 DI MATTEO Vincent 00:51:13 16:07 10 SE 26 M Les niouks
32 434 DUBOIS Nathaly 00:51:14 16:08 2 V1 6 F Les Tagada
33 598 FOURNIER Emilien 00:51:17 16:11 1 ES 27 M Les niouks
34 430 BOUCHEREAU Olivier 00:51:22 16:16 3 V1 28 M Les Tagada
35 605 GERBOULLET Mickael 00:51:26 16:20 11 SE 29 M Les niouks
36 793 AMARO Fernando 00:51:39 16:33 3 V1 7 F Fernando Amaro
37 794 AMARO Noé 00:51:40 16:34 7 MI 30 M Fernando Amaro
38 795 AMARO Lena 00:51:44 16:38 2 BE 8 F Fernando Amaro
39 944 SALINAS Théo 00:52:31 17:25 6 CA 31 M Allons au Pré ...Fessoles
40 737 LEYENDECKER Mathys 00:52:58 17:52 8 MI 32 M
41 736 LEYENDECKER Sebastien 00:52:58 17:52 4 V1 33 M
42 481 OURLIAC William 00:52:59 17:53 12 SE 34 M
43 427 BUCCI Marianne 00:53:01 17:55 3 SE 9 F
44 428 BINNERT Aline 00:53:04 17:58 1 ES 10 F
45 398 FOLLA Isabelle 00:53:08 18:02 4 SE 11 F deglingos come back
46 395 DÂ’URSO Angelique 00:53:11 18:05 4 V1 12 F deglingos come back
47 673 NURIT Loris 00:54:19 19:13 3 BE 35 M strike force
48 669 NURIT Hugo 00:54:20 19:14 9 MI 36 M strike force
49 948 JAMET Romane 00:54:21 19:15 2 MI 13 F
50 949 JAMET Lise 00:54:31 19:25 1 JU 14 F
51 676 SANGIORGIO Mylan 00:54:37 19:31 4 BE 37 M strike force
52 397 FORCELLA Pauline 00:54:44 19:38 5 SE 15 F deglingos come back
53 800 BOUHET Matthys 00:55:31 20:25 10 MI 38 M Team Cochonou
54 381 VIGNE Cyrielle 00:55:42 20:36 6 SE 16 F
55 842 GOLOBINEK Theo 00:55:44 20:38 5 BE 39 M LES RELOUS
56 380 FOURNIER Laurent 00:55:46 20:40 13 SE 40 M
57 854 FABBRI Raphael 00:55:59 20:53 5 V1 41 M
58 531 AGAPOFF Hugo 00:56:00 20:54 11 MI 42 M Les Chevaliers de Barnave
59 530 DUPREZ-CLEMENT Maël 00:56:10 21:04 12 MI 43 M Les Chevaliers de Barnave
60 533 MARTIN Eloi 00:56:20 21:14 13 MI 44 M Les Chevaliers de Barnave
61 532 NONIER Arthur 00:56:34 21:28 14 MI 45 M Les Chevaliers de Barnave
62 651 ARMANET KĂ©vin 00:56:51 21:45 14 SE 46 M 2B3
63 653 ARMANET Laura 00:57:04 21:58 7 SE 17 F 2B3
64 635 MOLLIER SABET Hugo 00:57:29 22:23 1 PO 47 M Les connards
65 857 MARTINET Jean-paul 00:58:02 22:56 5 V1 18 F LES BONNETS ROUGES
66 866 GUILLAUD Romain 00:58:09 23:03 2 ES 48 M les bonnets rouges
67 858 MARTINET Lauriane 00:58:19 23:13 2 JU 19 F LES BONNETS ROUGES
68 859 FIGUET Aymeric 00:58:29 23:23 2 JU 49 M LES BONNETS ROUGES
69 805 BRUN BARONNAT Maud 00:58:37 23:31 8 SE 20 F LAI MUOI RIVES
70 410 ALVES Jason 00:58:55 23:49 7 CA 50 M Frappa Team
71 409 ALVES Mattew 00:58:56 23:50 15 MI 51 M Frappa Team
72 408 ALVES Paolo 00:58:57 23:51 6 V1 52 M Frappa Team
73 846 GUILLON Perrine 01:00:18 25:12 9 SE 21 F
74 845 BOUQUET Clémentine 01:00:19 25:13 10 SE 22 F
75 874 SAGE Mathieu 01:01:06 26:00 15 SE 53 M LA BIELLE EQUIPE
76 870 SAGE Lena 01:01:31 26:25 2 ES 23 F LA BIELLE EQUIPE
77 871 SAGE Hugo 01:01:36 26:30 16 SE 54 M LA BIELLE EQUIPE
78 490 DRAGANI Damien 01:01:38 26:32 17 SE 55 M les Warriors
79 665 CHASTENET Maxime 01:01:41 26:35 16 MI 56 M
80 868 ANNEQUIN Alice 01:01:42 26:36 11 SE 24 F LA BIELLE EQUIPE
81 872 SAGE Guillaume 01:01:42 26:36 18 SE 57 M LA BIELLE EQUIPE
82 666 CHASTENET Leo 01:01:47 26:41 3 BE 25 F
83 745 GUETAT Olivier 01:01:53 26:47 7 V1 58 M Village people
84 748 RIGAUDIER Stéphane 01:01:56 26:50 8 V1 59 M village people
85 631 MOLLIER SABET Stephanie 01:01:57 26:51 6 V1 26 F Les connards
86 750 SENECHAL Christophe 01:02:01 26:55 9 V1 60 M Village people
87 873 SAGE Julien 01:02:07 27:01 19 SE 61 M LA BIELLE EQUIPE
88 875 SAGE Fabien 01:02:07 27:01 20 SE 62 M LA BIELLE EQUIPE
89 869 ANNEQUIN Mickael 01:02:07 27:01 21 SE 63 M LA BIELLE EQUIPE
90 746 WALLE Xavier 01:02:09 27:03 10 V1 64 M Village people
91 648 LASALMONIE Clara 01:02:20 27:14 1 CA 27 F David Lasalmonie
92 647 LASALMONIE David 01:02:20 27:14 11 V1 65 M David Lasalmonie
93 649 LASALMONIE Leo 01:02:21 27:15 17 MI 66 M David Lasalmonie
94 527 KOZMA Clarysse 01:02:35 27:29 3 ES 28 F Les charognards
95 751 BOURNAT-QUERAT Stephanie 01:02:42 27:36 7 V1 29 F Village people
96 529 DESSERT Clément 01:02:43 27:37 22 SE 67 M Les charognards
97 747 REDJADJ Claire 01:02:46 27:40 12 SE 30 F village people
98 495 FRANCK Pierre 01:02:53 27:47 3 ES 68 M les Warriors
99 749 BOYRIE Yannick 01:02:54 27:48 12 V1 69 M Village people
100 528 LANTHELME Jonathan 01:03:05 27:59 23 SE 70 M Les charognards
101 526 DIHARSE Cloé 01:03:06 28:00 13 SE 31 F Les charognards
102 496 DELAGE FRANCK Sandrine 01:03:06 28:00 8 V1 32 F les Warriors
103 867 GUILLAUD Florian 01:03:23 28:17 8 CA 71 M les bonnets rouges
104 494 CHARPIN Pauline 01:03:30 28:24 4 ES 33 F les Warriors
105 593 GONTHIER Vincent 01:04:02 28:56 24 SE 72 M MGF
106 591 BOIS Clothilde 01:04:10 29:04 14 SE 34 F MGF
107 925 ROUVIERE Cyril 01:04:18 29:12 13 V1 73 M Dimanche en famille
108 594 ALEXANDROWITSCH Virginie 01:04:25 29:19 9 V1 35 F MGF
109 590 MAGLIOLINI Patrick 01:04:27 29:21 1 V2 74 M MGF
110 920 BOREL Pierre 01:04:28 29:22 1 V3 75 M Dimanche en famille
111 919 FAVETTO Jean pierre 01:04:29 29:23 2 V2 76 M Dimanche en famille
112 926 ROUVIERE Justine 01:04:29 29:23 4 BE 36 F Dimanche en famille
113 918 FAVETTO Sylvain 01:04:30 29:24 25 SE 77 M Dimanche en famille
114 940 GUILLET Adeline 01:04:30 29:24 10 V1 37 F Dimanche en famille
115 701 PERRON RĂ©gis 01:05:31 30:25 26 SE 78 M Biocoop Voreppe
116 493 RANCK FORGET Kyllian 01:05:41 30:35 3 JU 79 M les Warriors
117 924 BOBO Romane 01:06:35 31:29 3 MI 38 F Sandrine Chaillard
118 922 CHAILLARD Sandrine 01:06:36 31:30 11 V1 39 F Sandrine Chaillard
119 696 FOREL CĂ©dric 01:06:38 31:32 27 SE 80 M Biocoop Voreppe
120 699 ARNAUD Collet-baudet 01:06:42 31:36 14 V1 81 M Biocoop Voreppe
121 923 CHAILLARD Patrick 01:06:42 31:36 15 V1 82 M Sandrine Chaillard
122 697 DUMINY Jonathan 01:06:43 31:37 28 SE 83 M Biocoop Voreppe
123 702 DEGOUSEE Caroline 01:06:46 31:40 12 V1 40 F Biocoop Voreppe
124 700 SALANOU Marion 01:06:48 31:42 15 SE 41 F Biocoop Voreppe
125 865 GUILLAUD Emmanuel 01:06:52 31:46 16 V1 84 M les bonnets rouges
126 862 MOULERES Stéphane 01:06:58 31:52 17 V1 85 M les bonnets rouges
127 864 BRACHET Laurélyne 01:06:59 31:53 5 BE 42 F les bonnets rouges
128 863 BRACHET Emilien 01:06:59 31:53 18 MI 86 M les bonnets rouges
129 861 BRACHET Leane 01:06:59 31:53 2 CA 43 F les bonnets rouges
130 856 MARTINET Beatrice 01:07:07 32:01 13 V1 44 F les bonnets rouges
131 486 SALSE Florian 01:07:12 32:06 29 SE 87 M Les potos Ă©lectriques
132 510 EYNARD Alexia 01:07:13 32:07 16 SE 45 F Les potos Ă©lectriques
133 565 GRANGER Marie 01:07:17 32:11 5 ES 46 F J'peux pas j'ai run
134 568 GRANGER Charlène 01:07:18 32:12 3 JU 47 F J'peux pas j'ai run
135 566 DECHAZERON Fabien 01:07:23 32:17 30 SE 88 M J'peux pas j'ai run
136 569 DUCREUX Ophélie 01:07:31 32:25 6 ES 48 F J'peux pas j'ai run
137 484 BOSOM David 01:07:32 32:26 31 SE 89 M Les potos Ă©lectriques
138 483 KLEIN Lionel 01:07:40 32:34 32 SE 90 M Les potos Ă©lectriques
139 567 PIOLI Laurine 01:07:41 32:35 7 ES 49 F J'peux pas j'ai run
140 482 AGAISSE Marie 01:07:42 32:36 17 SE 50 F Les potos Ă©lectriques
141 876 SALINAS Brigitte 01:07:46 32:40 14 V1 51 F Allons au Pré ...Fessoles
142 629 FANCHON Clemence 01:09:59 34:53 3 CA 52 F Tfb girly
143 475 RONZIER Elodie 01:10:03 34:57 18 SE 53 F Wariors
144 585 WOLOZAN Habiba 01:10:03 34:57 15 V1 54 F Team TACOS
145 627 CARPANO Jade 01:10:04 34:58 4 CA 55 F Tfb girly
146 476 DIDIER Christelle 01:10:07 35:01 19 SE 56 F warriors
147 473 BRET Sabine 01:10:11 35:05 20 SE 57 F wariors
148 478 ROCHETTE Geoffrey 01:10:12 35:06 33 SE 91 M wariors
149 474 BRET Anthony 01:10:14 35:08 34 SE 92 M Wariors
150 582 DUHAUDT Elodie 01:10:14 35:08 21 SE 58 F Team TACOS
151 479 LO BLANCO Azzurra 01:10:14 35:08 22 SE 59 F wariors
152 586 DESQUENE DĂ©borah 01:10:22 35:16 23 SE 60 F Team TACOS
153 584 GHAMMAD Saad 01:10:33 35:27 35 SE 93 M Team TACOS
154 587 MAMMAR Nabil 01:10:39 35:33 36 SE 94 M Team TACOS
155 583 SIOLI Ambroise 01:10:41 35:35 37 SE 95 M Team TACOS
156 588 BAABOUCHE Mehdi 01:10:49 35:43 38 SE 96 M Team TACOS
157 710 FLEURY Melanie 01:11:31 36:25 24 SE 61 F LES FLEURY
158 707 FLEURY Francis 01:11:31 36:25 3 V2 97 M LES FLEURY
159 708 FLEURY Mathis 01:11:32 36:26 19 MI 98 M LES FLEURY
160 711 GENTIL Yann 01:11:32 36:26 39 SE 99 M LES FLEURY
161 538 MARTINI Maud 01:11:36 36:30 16 V1 62 F Les touristes
162 709 FLEURY Elodie 01:11:36 36:30 8 ES 63 F LES FLEURY
163 539 AUDEBRAND Yann 01:11:43 36:37 40 SE 100 M Les touristes
164 536 LESUR Clément 01:11:57 36:51 41 SE 101 M Les touristes
165 672 SANGIORGIO Bastien 01:11:57 36:51 42 SE 102 M strike force
166 604 GUTTIN VÉSIN Mélissa 01:12:01 36:55 25 SE 64 F Les niouks
167 358 TERPENT Gaël 01:12:02 36:56 43 SE 103 M
168 607 MORO Gael 01:12:02 36:56 44 SE 104 M Les niouks
169 550 BELLONE  Kevin 01:12:03 36:57 45 SE 105 M Les touristes
170 551 BOUKHARI Benamar 01:12:03 36:57 4 V2 106 M Les touristes
171 537 AUBERT Xavier 01:12:08 37:02 46 SE 107 M Les touristes
172 597 GAGNEUR Christelle 01:12:10 37:04 26 SE 65 F Les niouks
173 670 NURIT Valerie 01:12:10 37:04 17 V1 66 F strick force
174 610 SUBTIL Sylvia 01:12:11 37:05 18 V1 67 F Les niouks
175 603 MOSER Natalie 01:12:11 37:05 27 SE 68 F Les niouks
176 599 BOUILLARD Morgane 01:12:14 37:08 9 ES 69 F Les niouks
177 596 FOURNIER Marie 01:12:14 37:08 28 SE 70 F Les niouks
178 601 REVOL Justine 01:12:14 37:08 29 SE 71 F Les niouks
179 608 CHOSSAT Ludivine 01:12:14 37:08 4 JU 72 F Les niouks
180 600 DUFOUR Angélique 01:12:15 37:09 30 SE 73 F Les niouks
181 609 BONNET Tom 01:12:15 37:09 4 JU 108 M Les niouks
182 671 BOURGARIT Candice 01:12:18 37:12 31 SE 74 F strike force
183 804 BELLANGER VĂ©ronique 01:12:18 37:12 19 V1 75 F Team Cochonou
184 638 CUSIN Stéphanie 01:12:25 37:19 20 V1 76 F
185 675 CARLIN Audrey 01:12:28 37:22 32 SE 77 F strike force
186 357 PERRIN Julie 01:12:35 37:29 33 SE 78 F
187 356 MASSIDDA Jordan 01:12:35 37:29 47 SE 109 M
188 674 CARLIN Lionel 01:12:38 37:32 48 SE 110 M strike force
189 685 IMARAZENE Teddy 01:12:41 37:35 49 SE 111 M Les vÂ’dettes
190 378 JUANICO Clément 01:12:55 37:49 6 BE 112 M Les oranges vertes
191 375 JUANICO Coralie 01:12:55 37:49 21 V1 79 F Les oranges vertes
192 683 MARCHAND Jessica 01:12:57 37:51 34 SE 80 F Les vÂ’dettes
193 827 SABY Loic 01:12:59 37:53 4 ES 113 M VEDETTES
194 684 IMARAZENE Tiphaine 01:13:14 38:08 35 SE 81 F Les vÂ’dettes
195 682 CLOR Nicolas 01:13:18 38:12 50 SE 114 M Les vÂ’dettes
196 831 PERIER-MUZET Laurine 01:13:25 38:19 10 ES 82 F VEDETTES
197 903 CATINOT Lise 01:13:38 38:32 36 SE 83 F Dieti'Fit
198 902 EPARVIER Elodie 01:13:39 38:33 37 SE 84 F Dieti'Fit
199 540 KWAKMAN Paola 01:13:48 38:42 38 SE 85 F Les touristes
200 830 PERIER-MUZET Anais 01:13:53 38:47 39 SE 86 F VEDETTES
  La Renversante 5 Vagues Loisirs 6km - Timing Perf Event 2019
 
Nombre ou lettres (3 minimum)
Classement    
Filtre :
Rang :